createdAt,value
2023-03-27T00:00:23.347Z,79.4
2023-03-27T00:01:24.749Z,79.4
2023-03-27T00:02:26.318Z,79.4
2023-03-27T00:03:27.889Z,79.4
2023-03-27T00:04:29.048Z,79.4
2023-03-27T00:05:30.216Z,79.5
2023-03-27T00:06:31.624Z,79.5
2023-03-27T00:07:32.786Z,79.5
2023-03-27T00:08:33.953Z,79.5
2023-03-27T00:09:35.117Z,79.5
2023-03-27T00:10:36.282Z,79.5
2023-03-27T00:11:37.448Z,79.5
2023-03-27T00:12:38.609Z,79.5
2023-03-27T00:13:51.878Z,79.5
2023-03-27T00:14:53.042Z,79.5
2023-03-27T00:15:54.237Z,79.5
2023-03-27T00:16:55.840Z,79.5
2023-03-27T00:17:57.141Z,79.6
2023-03-27T00:18:58.293Z,79.6
2023-03-27T00:19:59.457Z,79.6
2023-03-27T00:21:00.625Z,79.6
2023-03-27T00:22:01.927Z,79.6
2023-03-27T00:23:03.101Z,79.6
2023-03-27T00:24:04.254Z,79.7
2023-03-27T00:25:05.424Z,79.7
2023-03-27T00:26:06.591Z,79.6
2023-03-27T00:27:07.756Z,79.6
2023-03-27T00:28:08.918Z,79.6
2023-03-27T00:29:10.088Z,79.6
2023-03-27T00:30:11.246Z,79.5
2023-03-27T00:31:13.011Z,79.4
2023-03-27T00:32:14.195Z,79.4
2023-03-27T00:33:15.358Z,79.4
2023-03-27T00:34:16.371Z,79.4
2023-03-27T00:35:17.850Z,79.3
2023-03-27T00:36:18.998Z,79.3
2023-03-27T00:37:20.162Z,79.3
2023-03-27T00:38:21.249Z,79.3
2023-03-27T00:39:22.404Z,79.2
2023-03-27T00:40:23.565Z,79.1
2023-03-27T00:41:25.064Z,79.2
2023-03-27T00:42:26.206Z,79.1
2023-03-27T00:43:27.390Z,79.1
2023-03-27T00:44:28.533Z,79.1
2023-03-27T00:45:29.704Z,79.1
2023-03-27T00:46:31.060Z,79.2
2023-03-27T00:47:32.323Z,79.2
2023-03-27T00:48:33.479Z,79.3
2023-03-27T00:49:34.921Z,79.3
2023-03-27T00:50:36.087Z,79.3
2023-03-27T00:51:37.054Z,79.4
2023-03-27T00:52:38.223Z,79.5
2023-03-27T00:53:39.382Z,79.5
2023-03-27T00:54:40.797Z,79.6
2023-03-27T00:55:41.970Z,79.6
2023-03-27T00:56:43.131Z,79.7
2023-03-27T00:57:44.299Z,79.7
2023-03-27T00:58:45.463Z,79.8
2023-03-27T00:59:46.625Z,79.9
2023-03-27T01:00:47.794Z,80
2023-03-27T01:01:49.201Z,80
2023-03-27T01:02:50.825Z,80.1
2023-03-27T01:03:52.469Z,80.1
2023-03-27T01:04:53.743Z,80.2
2023-03-27T01:05:54.913Z,80.2
2023-03-27T01:06:56.072Z,80.2
2023-03-27T01:08:02.494Z,80.3
2023-03-27T01:09:03.668Z,80.3
2023-03-27T01:10:04.829Z,80.4
2023-03-27T01:11:05.996Z,80.4
2023-03-27T01:12:07.165Z,80.5
2023-03-27T01:13:08.327Z,80.5
2023-03-27T01:14:09.485Z,80.5
2023-03-27T01:15:10.675Z,80.5
2023-03-27T01:16:12.109Z,80.6
2023-03-27T01:17:13.276Z,80.6
2023-03-27T01:18:14.418Z,80.6
2023-03-27T01:19:15.582Z,80.7
2023-03-27T01:20:16.751Z,80.7
2023-03-27T01:21:17.911Z,80.7
2023-03-27T01:22:19.087Z,80.7
2023-03-27T01:24:01.282Z,80.6
2023-03-27T01:25:02.444Z,80.6
2023-03-27T01:26:03.608Z,80.6
2023-03-27T01:27:04.773Z,80.6
2023-03-27T01:28:05.938Z,80.6
2023-03-27T01:29:07.103Z,80.5
2023-03-27T01:30:08.343Z,80.4
2023-03-27T01:31:09.528Z,80.4
2023-03-27T01:32:10.683Z,80.3
2023-03-27T01:33:11.868Z,80.1
2023-03-27T01:34:13.021Z,80.1
2023-03-27T01:35:14.181Z,80.1
2023-03-27T01:36:15.476Z,80
2023-03-27T01:37:16.642Z,79.9
2023-03-27T01:38:17.811Z,79.7
2023-03-27T01:39:18.975Z,79.6
2023-03-27T01:40:20.138Z,79.4
2023-03-27T01:41:21.304Z,79.3
2023-03-27T01:42:22.464Z,79.2
2023-03-27T01:43:23.636Z,79.1
2023-03-27T01:44:45.193Z,78.9
2023-03-27T01:45:46.760Z,78.8
2023-03-27T01:46:47.970Z,78.6
2023-03-27T01:47:49.277Z,78.5
2023-03-27T01:48:50.458Z,78.5
2023-03-27T01:49:51.599Z,78.5
2023-03-27T01:50:52.759Z,78.5
2023-03-27T01:51:54.307Z,78.4
2023-03-27T01:52:55.475Z,78.4
2023-03-27T01:53:56.645Z,78.3
2023-03-27T01:54:57.803Z,78.2
2023-03-27T01:55:58.968Z,78.1
2023-03-27T01:57:00.255Z,78
2023-03-27T01:58:01.405Z,78
2023-03-27T01:59:02.576Z,77.9
2023-03-27T02:00:20.073Z,77.9
2023-03-27T02:01:21.256Z,77.8
2023-03-27T02:02:22.648Z,77.8
2023-03-27T02:03:23.812Z,77.7
2023-03-27T02:04:25.262Z,77.6
2023-03-27T02:05:26.517Z,77.6
2023-03-27T02:06:27.693Z,77.4
2023-03-27T02:07:28.877Z,77.1
2023-03-27T02:08:30.023Z,77
2023-03-27T02:09:31.240Z,76.9
2023-03-27T02:10:32.374Z,76.7
2023-03-27T02:11:33.539Z,76.7
2023-03-27T02:12:34.704Z,76.7
2023-03-27T02:13:35.870Z,76.6
2023-03-27T02:14:37.035Z,76.7
2023-03-27T02:15:38.201Z,76.6
2023-03-27T02:16:39.484Z,76.4
2023-03-27T02:17:40.985Z,76.2
2023-03-27T02:18:42.166Z,76.2
2023-03-27T02:19:43.337Z,75.9
2023-03-27T02:20:44.480Z,75.8
2023-03-27T02:21:45.632Z,75.6
2023-03-27T02:22:46.805Z,75.4
2023-03-27T02:23:47.968Z,75.3
2023-03-27T02:24:49.139Z,75.2
2023-03-27T02:25:50.302Z,74.9
2023-03-27T02:26:51.471Z,74.9
2023-03-27T02:27:52.629Z,74.9
2023-03-27T02:28:53.801Z,74.9
2023-03-27T02:29:54.962Z,74.8
2023-03-27T02:31:35.606Z,74.7
2023-03-27T02:32:37.316Z,74.7
2023-03-27T02:33:38.506Z,74.7
2023-03-27T02:34:39.665Z,74.6
2023-03-27T02:35:40.967Z,74.6
2023-03-27T02:36:42.303Z,74.6
2023-03-27T02:37:43.473Z,74.5
2023-03-27T02:38:44.634Z,74.3
2023-03-27T02:39:45.819Z,73.9
2023-03-27T02:40:46.982Z,73.6
2023-03-27T02:41:48.149Z,73.3
2023-03-27T02:42:49.322Z,73.3
2023-03-27T02:43:50.481Z,73.3
2023-03-27T02:44:51.739Z,73.2
2023-03-27T02:45:53.314Z,73.2
2023-03-27T02:46:54.566Z,73.1
2023-03-27T02:47:55.858Z,73
2023-03-27T02:48:57.033Z,73.1
2023-03-27T02:49:58.285Z,73
2023-03-27T02:51:00.085Z,73
2023-03-27T02:52:01.362Z,73.1
2023-03-27T02:53:02.519Z,73
2023-03-27T02:54:03.686Z,73
2023-03-27T02:55:04.846Z,73.1
2023-03-27T02:56:06.011Z,73.1
2023-03-27T02:57:07.292Z,73.1
2023-03-27T02:58:08.438Z,73
2023-03-27T02:59:09.613Z,73
2023-03-27T03:00:10.775Z,73.1
2023-03-27T03:01:11.999Z,73.1
2023-03-27T03:02:13.227Z,73.1
2023-03-27T03:03:14.875Z,73.2
2023-03-27T03:04:16.193Z,73.2
2023-03-27T03:05:17.377Z,73.3
2023-03-27T03:06:18.553Z,73.4
2023-03-27T03:07:19.692Z,73.4
2023-03-27T03:08:20.853Z,73.5
2023-03-27T03:09:22.023Z,73.6
2023-03-27T03:10:23.200Z,73.7
2023-03-27T03:11:24.350Z,73.8
2023-03-27T03:12:25.521Z,73.8
2023-03-27T03:13:26.679Z,73.9
2023-03-27T03:14:27.851Z,74
2023-03-27T03:15:29.017Z,74
2023-03-27T03:16:30.376Z,74.1
2023-03-27T03:17:31.679Z,74.1
2023-03-27T03:18:32.818Z,74.1
2023-03-27T03:19:33.975Z,74.2
2023-03-27T03:20:35.148Z,74.3
2023-03-27T03:21:36.334Z,74.3
2023-03-27T03:22:37.613Z,74.4
2023-03-27T03:23:38.777Z,74.5
2023-03-27T03:24:39.945Z,74.6
2023-03-27T03:25:41.125Z,74.7
2023-03-27T03:26:42.289Z,74.8
2023-03-27T03:27:43.454Z,74.9
2023-03-27T03:29:02.171Z,74.9
2023-03-27T03:30:03.338Z,74.9
2023-03-27T03:31:04.558Z,74.9
2023-03-27T03:32:05.691Z,74.9
2023-03-27T03:33:06.991Z,74.9
2023-03-27T03:34:08.137Z,74.8
2023-03-27T03:35:09.297Z,74.8
2023-03-27T03:36:10.652Z,74.8
2023-03-27T03:37:11.978Z,74.8
2023-03-27T03:38:13.275Z,74.7
2023-03-27T03:39:14.422Z,74.8
2023-03-27T03:40:15.602Z,74.8
2023-03-27T03:41:16.766Z,74.8
2023-03-27T03:42:24.796Z,74.9
2023-03-27T03:43:25.956Z,74.9
2023-03-27T03:44:27.122Z,75
2023-03-27T03:45:28.281Z,75
2023-03-27T03:46:29.653Z,75.1
2023-03-27T03:47:31.145Z,75.1
2023-03-27T03:48:32.295Z,75.2
2023-03-27T03:49:33.462Z,75.2
2023-03-27T03:50:34.622Z,75.2
2023-03-27T03:51:35.784Z,75.2
2023-03-27T03:52:37.019Z,75.3
2023-03-27T03:53:38.140Z,75.3
2023-03-27T03:54:39.375Z,75.3
2023-03-27T03:55:40.542Z,75.4
2023-03-27T03:56:41.855Z,75.4
2023-03-27T03:57:43.093Z,75.4
2023-03-27T03:58:44.264Z,75.5
2023-03-27T03:59:45.424Z,75.6
2023-03-27T04:00:46.587Z,75.6
2023-03-27T04:01:47.790Z,75.7
2023-03-27T04:02:49.232Z,75.8
2023-03-27T04:03:50.803Z,76
2023-03-27T04:04:51.855Z,76.1
2023-03-27T04:05:53.015Z,76.2
2023-03-27T04:06:54.181Z,76.3
2023-03-27T04:07:55.375Z,76.3
2023-03-27T04:08:56.511Z,76.4
2023-03-27T04:09:57.675Z,76.6
2023-03-27T04:10:59.392Z,76.7
2023-03-27T04:12:00.554Z,76.8
2023-03-27T04:13:01.727Z,76.9
2023-03-27T04:14:02.888Z,77
2023-03-27T04:15:04.053Z,77.1
2023-03-27T04:16:05.434Z,77.2
2023-03-27T04:17:06.670Z,77.3
2023-03-27T04:18:08.201Z,77.4
2023-03-27T04:19:09.556Z,77.5
2023-03-27T04:20:10.609Z,77.5
2023-03-27T04:21:11.751Z,77.6
2023-03-27T04:22:12.914Z,77.7
2023-03-27T04:23:14.147Z,77.8
2023-03-27T04:24:15.284Z,77.8
2023-03-27T04:25:16.448Z,77.9
2023-03-27T04:26:17.702Z,78
2023-03-27T04:27:18.933Z,78
2023-03-27T04:28:20.092Z,78.1
2023-03-27T04:29:21.261Z,78.2
2023-03-27T04:30:22.525Z,78.2
2023-03-27T04:31:23.754Z,78.3
2023-03-27T04:32:25.154Z,78.4
2023-03-27T04:33:31.812Z,78.4
2023-03-27T04:34:32.974Z,78.5
2023-03-27T04:35:34.268Z,78.6
2023-03-27T04:36:35.540Z,78.7
2023-03-27T04:37:36.754Z,78.7
2023-03-27T04:38:38.077Z,78.8
2023-03-27T04:39:39.219Z,78.8
2023-03-27T04:40:40.384Z,78.9
2023-03-27T04:41:41.549Z,79
2023-03-27T04:42:42.832Z,79
2023-03-27T04:43:43.997Z,79.1
2023-03-27T04:44:45.158Z,79.1
2023-03-27T04:45:46.340Z,79.1
2023-03-27T04:46:47.531Z,79.1
2023-03-27T04:47:48.971Z,79.2
2023-03-27T04:48:50.321Z,79.2
2023-03-27T04:49:51.581Z,79.3
2023-03-27T04:50:52.746Z,79.2
2023-03-27T04:51:53.913Z,79.2
2023-03-27T04:52:55.079Z,79.3
2023-03-27T04:53:56.432Z,79.3
2023-03-27T04:54:57.637Z,79.4
2023-03-27T04:55:58.800Z,79.4
2023-03-27T04:57:00.581Z,79.5
2023-03-27T04:58:01.747Z,79.5
2023-03-27T04:59:02.934Z,79.6
2023-03-27T05:00:04.084Z,79.6
2023-03-27T05:01:05.448Z,79.6
2023-03-27T05:02:06.927Z,79.7
2023-03-27T05:03:08.519Z,79.7
2023-03-27T05:04:09.777Z,79.8
2023-03-27T05:05:10.942Z,79.8
2023-03-27T05:06:12.177Z,79.9
2023-03-27T05:07:13.403Z,79.9
2023-03-27T05:08:14.566Z,79.9
2023-03-27T05:09:15.764Z,80
2023-03-27T05:10:17.004Z,80
2023-03-27T05:11:22.724Z,80.1
2023-03-27T05:12:23.903Z,80.1
2023-03-27T05:13:25.054Z,80.1
2023-03-27T05:14:26.217Z,80.2
2023-03-27T05:15:27.383Z,80.2
2023-03-27T05:16:28.646Z,80.2
2023-03-27T05:17:29.834Z,80.2
2023-03-27T05:18:31.076Z,80.3
2023-03-27T05:19:32.236Z,80.3
2023-03-27T05:20:33.402Z,80.3
2023-03-27T05:22:45.788Z,80.4
2023-03-27T05:23:46.948Z,80.4
2023-03-27T05:24:48.234Z,80.4
2023-03-27T05:26:01.568Z,80.5
2023-03-27T05:27:02.596Z,80.5
2023-03-27T05:28:03.766Z,80.5
2023-03-27T05:29:04.920Z,80.5
2023-03-27T05:30:06.091Z,80.5
2023-03-27T05:31:07.410Z,80.5
2023-03-27T05:32:08.562Z,80.5
2023-03-27T05:33:09.735Z,80.6
2023-03-27T05:34:10.900Z,80.6
2023-03-27T05:35:12.063Z,80.6
2023-03-27T05:36:13.231Z,80.7
2023-03-27T05:37:14.391Z,80.7
2023-03-27T05:38:15.580Z,80.7
2023-03-27T05:39:16.614Z,80.7
2023-03-27T05:40:17.882Z,80.7
2023-03-27T05:41:19.141Z,80.8
2023-03-27T05:42:20.300Z,80.8
2023-03-27T05:43:21.473Z,80.8
2023-03-27T05:44:22.631Z,80.8
2023-03-27T05:45:23.837Z,80.8
2023-03-27T05:46:25.187Z,80.8
2023-03-27T05:47:26.497Z,80.9
2023-03-27T05:48:27.630Z,80.9
2023-03-27T05:49:28.796Z,80.9
2023-03-27T05:50:30.059Z,80.9
2023-03-27T05:51:31.227Z,80.9
2023-03-27T05:52:32.387Z,80.9
2023-03-27T05:53:33.553Z,80.8
2023-03-27T05:54:34.715Z,80.8
2023-03-27T05:55:36.001Z,80.8
2023-03-27T05:56:37.273Z,80.7
2023-03-27T05:57:38.432Z,80.7
2023-03-27T05:58:39.901Z,80.7
2023-03-27T05:59:41.065Z,80.7
2023-03-27T06:00:42.239Z,80.6
2023-03-27T06:01:43.387Z,80.6
2023-03-27T06:02:44.977Z,80.5
2023-03-27T06:03:46.682Z,80.4
2023-03-27T06:04:47.991Z,80.3
2023-03-27T06:05:49.151Z,80.2
2023-03-27T06:06:50.310Z,80.1
2023-03-27T06:07:51.338Z,79.9
2023-03-27T06:08:52.497Z,79.8
2023-03-27T06:09:53.551Z,79.7
2023-03-27T06:10:55.499Z,79.6
2023-03-27T06:11:56.844Z,79.4
2023-03-27T06:12:58.013Z,79.3
2023-03-27T06:13:59.714Z,79.1
2023-03-27T06:15:00.881Z,79
2023-03-27T06:16:02.196Z,78.9
2023-03-27T06:17:03.362Z,78.8
2023-03-27T06:18:04.818Z,78.8
2023-03-27T06:19:05.970Z,78.8
2023-03-27T06:20:07.135Z,78.8
2023-03-27T06:21:08.157Z,78.8
2023-03-27T06:22:09.319Z,78.7
2023-03-27T06:23:10.573Z,78.7
2023-03-27T06:24:11.733Z,78.6
2023-03-27T06:25:12.908Z,78.6
2023-03-27T06:26:14.092Z,78.6
2023-03-27T06:27:15.251Z,78.5
2023-03-27T06:28:16.196Z,78.4
2023-03-27T06:29:17.539Z,78.4
2023-03-27T06:30:18.914Z,78.3
2023-03-27T06:31:20.198Z,78.3
2023-03-27T06:32:21.807Z,78.3
2023-03-27T06:33:22.767Z,78.2
2023-03-27T06:34:23.930Z,78.2
2023-03-27T06:35:25.105Z,78.2
2023-03-27T06:36:26.420Z,78.1
2023-03-27T06:37:27.562Z,78
2023-03-27T06:38:28.723Z,77.8
2023-03-27T06:39:29.892Z,77.7
2023-03-27T06:40:31.057Z,77.7
2023-03-27T06:41:32.249Z,77.7
2023-03-27T06:42:33.385Z,77.7
2023-03-27T06:43:34.591Z,77.7
2023-03-27T06:44:35.976Z,77.6
2023-03-27T06:45:37.313Z,77.6
2023-03-27T06:46:46.588Z,77.6
2023-03-27T06:48:20.301Z,77.6
2023-03-27T06:49:22.842Z,77.6
2023-03-27T06:50:24.388Z,77.6
2023-03-27T06:51:25.556Z,77.5
2023-03-27T06:52:26.714Z,77.5
2023-03-27T06:53:35.635Z,77.3
2023-03-27T06:54:38.401Z,77.1
2023-03-27T06:55:39.563Z,77
2023-03-27T06:56:41.002Z,76.9
2023-03-27T06:57:42.219Z,76.8
2023-03-27T06:58:43.191Z,76.7
2023-03-27T06:59:44.354Z,76.4
2023-03-27T07:00:45.523Z,76.2
2023-03-27T07:01:46.801Z,76
2023-03-27T07:02:48.071Z,75.9
2023-03-27T07:03:49.117Z,75.6
2023-03-27T07:05:05.858Z,75.5
2023-03-27T07:06:07.243Z,75.3
2023-03-27T07:07:08.389Z,75.1
2023-03-27T07:08:25.666Z,74.8
2023-03-27T07:09:26.874Z,74.7
2023-03-27T07:10:28.025Z,75
2023-03-27T07:11:32.721Z,75.1
2023-03-27T07:12:33.920Z,75.2
2023-03-27T07:13:35.191Z,75.4
2023-03-27T07:14:36.559Z,75.4
2023-03-27T07:15:38.135Z,75.2
2023-03-27T07:16:39.337Z,75.3
2023-03-27T07:17:50.012Z,75.4
2023-03-27T07:18:51.271Z,75.5
2023-03-27T07:19:52.432Z,75.6
2023-03-27T07:20:53.602Z,75.7
2023-03-27T07:21:54.761Z,75.9
2023-03-27T07:22:57.136Z,76
2023-03-27T07:23:58.302Z,76.1
2023-03-27T07:24:59.077Z,76.2
2023-03-27T07:26:00.736Z,76.2
2023-03-27T07:27:01.913Z,76.1
2023-03-27T07:28:06.852Z,76
2023-03-27T07:29:07.994Z,76
2023-03-27T07:30:09.178Z,75.9
2023-03-27T07:31:55.260Z,75.7
2023-03-27T07:32:58.103Z,75.7
2023-03-27T07:33:59.672Z,75.8
2023-03-27T07:35:00.800Z,75.7
2023-03-27T07:36:02.281Z,75.7
2023-03-27T07:37:03.441Z,75.6
2023-03-27T07:38:04.608Z,75.5
2023-03-27T07:39:05.775Z,75.4
2023-03-27T07:40:06.788Z,75.3
2023-03-27T07:41:07.959Z,75.4
2023-03-27T07:42:09.111Z,75.3
2023-03-27T07:43:10.308Z,75.4
2023-03-27T07:44:11.615Z,75.1
2023-03-27T07:45:12.788Z,75.2
2023-03-27T07:46:14.156Z,74.9
2023-03-27T07:47:15.433Z,74.8
2023-03-27T07:48:16.866Z,74.7
2023-03-27T07:49:18.313Z,74.8
2023-03-27T07:50:19.473Z,75.1
2023-03-27T07:51:20.442Z,75.1
2023-03-27T07:52:21.256Z,75
2023-03-27T07:53:35.334Z,74.8
2023-03-27T07:54:36.504Z,74.7
2023-03-27T07:55:37.471Z,74.5
2023-03-27T07:56:38.748Z,74.8
2023-03-27T07:58:03.401Z,75
2023-03-27T07:59:04.896Z,75
2023-03-27T08:00:05.848Z,74.9
2023-03-27T08:01:07.030Z,74.6
2023-03-27T08:02:08.516Z,74.6
2023-03-27T08:03:10.734Z,74.6
2023-03-27T08:04:12.713Z,74.6
2023-03-27T08:05:14.392Z,74.6
2023-03-27T08:06:15.686Z,74.6
2023-03-27T08:07:16.837Z,74.5
2023-03-27T08:08:18.001Z,74.6
2023-03-27T08:09:19.165Z,74.8
2023-03-27T08:10:20.332Z,74.9
2023-03-27T08:11:31.713Z,74.3
2023-03-27T08:12:32.683Z,73.7
2023-03-27T08:13:33.657Z,73.7
2023-03-27T08:14:34.869Z,73.9
2023-03-27T08:15:35.999Z,74.3
2023-03-27T08:16:37.413Z,74.2
2023-03-27T08:17:39.069Z,73.8
2023-03-27T08:18:40.250Z,73.5
2023-03-27T08:19:41.393Z,73.2
2023-03-27T08:20:42.559Z,73.1
2023-03-27T08:21:43.724Z,72.4
2023-03-27T08:22:44.892Z,72.1
2023-03-27T08:23:46.054Z,72.3
2023-03-27T08:24:47.222Z,72.5
2023-03-27T08:25:48.384Z,72.4
2023-03-27T08:26:49.546Z,72.6
2023-03-27T08:27:50.799Z,72.2
2023-03-27T08:28:52.080Z,72.1
2023-03-27T08:29:53.265Z,71.8
2023-03-27T08:31:03.802Z,71.5
2023-03-27T08:32:05.102Z,71.4
2023-03-27T08:33:06.345Z,71.3
2023-03-27T08:34:07.536Z,71.2
2023-03-27T08:35:08.685Z,70.8
2023-03-27T08:36:11.580Z,70.2
2023-03-27T08:37:12.832Z,69.9
2023-03-27T08:38:27.613Z,69
2023-03-27T08:39:28.777Z,67.4
2023-03-27T08:40:30.076Z,66.5
2023-03-27T08:41:31.238Z,66.8
2023-03-27T08:42:32.443Z,67.1
2023-03-27T08:43:33.573Z,66.8
2023-03-27T08:44:34.740Z,66.7
2023-03-27T08:45:35.927Z,66.6
2023-03-27T08:46:37.430Z,66.2
2023-03-27T08:47:38.777Z,66.2
2023-03-27T08:48:40.039Z,66.2
2023-03-27T08:49:41.198Z,66.3
2023-03-27T08:50:42.258Z,66
2023-03-27T08:51:43.086Z,65.5
2023-03-27T08:52:44.249Z,65
2023-03-27T08:53:45.411Z,64.6
2023-03-27T08:54:46.573Z,64.4
2023-03-27T08:55:47.741Z,64.3
2023-03-27T08:56:49.015Z,64.3
2023-03-27T08:57:49.986Z,65.3
2023-03-27T08:58:51.166Z,66.4
2023-03-27T08:59:52.328Z,66.1
2023-03-27T09:00:53.321Z,66.1
2023-03-27T09:01:54.705Z,66.4
2023-03-27T09:02:56.210Z,66
2023-03-27T09:03:58.119Z,66.1
2023-03-27T09:04:59.402Z,66.1
2023-03-27T09:06:00.733Z,65.9
2023-03-27T09:07:01.892Z,65.9
2023-03-27T09:08:03.062Z,66.1
2023-03-27T09:09:04.048Z,66.1
2023-03-27T09:10:05.196Z,65.6
2023-03-27T09:11:06.754Z,65.2
2023-03-27T09:12:08.287Z,65.1
2023-03-27T09:13:09.398Z,65
2023-03-27T09:14:10.627Z,65.1
2023-03-27T09:15:11.795Z,65.1
2023-03-27T09:16:13.179Z,65
2023-03-27T09:17:14.450Z,65
2023-03-27T09:18:15.615Z,65
2023-03-27T09:19:16.774Z,64.9
2023-03-27T09:20:17.974Z,64.9
2023-03-27T09:21:19.384Z,64.6
2023-03-27T09:22:20.717Z,64.6
2023-03-27T09:23:22.045Z,64.5
2023-03-27T09:24:23.217Z,64.6
2023-03-27T09:25:24.378Z,64.6
2023-03-27T09:26:25.543Z,64.9
2023-03-27T09:27:26.713Z,65
2023-03-27T09:28:27.872Z,65.1
2023-03-27T09:29:29.036Z,65.2
2023-03-27T09:30:30.206Z,65.3
2023-03-27T09:31:31.496Z,65.4
2023-03-27T09:32:35.027Z,65.2
2023-03-27T09:33:36.063Z,64.7
2023-03-27T09:34:37.236Z,64.9
2023-03-27T09:35:38.533Z,65.2
2023-03-27T09:36:39.873Z,65
2023-03-27T09:37:41.031Z,64.4
2023-03-27T09:38:42.189Z,63.9
2023-03-27T09:39:43.375Z,63.4
2023-03-27T09:40:44.540Z,63.3
2023-03-27T09:41:45.697Z,63.2
2023-03-27T09:42:46.858Z,63.2
2023-03-27T09:43:48.019Z,63.3
2023-03-27T09:44:49.186Z,63.2
2023-03-27T09:45:50.357Z,63
2023-03-27T09:46:51.886Z,63.2
2023-03-27T09:47:53.178Z,63.6
2023-03-27T09:48:54.323Z,63.9
2023-03-27T09:49:55.488Z,64
2023-03-27T09:50:57.396Z,63.8
2023-03-27T09:51:58.745Z,63.8
2023-03-27T09:52:59.905Z,64.2
2023-03-27T09:54:01.072Z,64
2023-03-27T09:55:02.353Z,64.1
2023-03-27T09:56:04.159Z,63.7
2023-03-27T09:57:05.451Z,63.8
2023-03-27T09:58:06.594Z,63
2023-03-27T09:59:07.759Z,62.6
2023-03-27T10:00:08.927Z,62.3
2023-03-27T10:01:10.080Z,62
2023-03-27T10:02:11.280Z,62
2023-03-27T10:03:12.777Z,61.9
2023-03-27T10:04:14.188Z,61.7
2023-03-27T10:05:15.324Z,61.5
2023-03-27T10:06:16.487Z,61
2023-03-27T10:07:17.457Z,60.3
2023-03-27T10:08:18.617Z,60
2023-03-27T10:09:19.788Z,59.4
2023-03-27T10:10:21.062Z,59.2
2023-03-27T10:11:22.230Z,58.8
2023-03-27T10:12:23.391Z,59.1
2023-03-27T10:13:24.554Z,59.2
2023-03-27T10:14:25.719Z,59.3
2023-03-27T10:15:26.891Z,59.1
2023-03-27T10:16:28.120Z,59.2
2023-03-27T10:17:29.372Z,59.4
2023-03-27T10:18:30.636Z,59.6
2023-03-27T10:19:31.798Z,59.7
2023-03-27T10:20:32.964Z,59.6
2023-03-27T10:21:34.128Z,59.5
2023-03-27T10:22:35.593Z,59.4
2023-03-27T10:23:36.848Z,59.4
2023-03-27T10:24:46.693Z,59.3
2023-03-27T10:25:47.859Z,59.4
2023-03-27T10:26:49.018Z,58.7
2023-03-27T10:27:50.179Z,58.4
2023-03-27T10:28:51.349Z,58.2
2023-03-27T10:29:52.512Z,58
2023-03-27T10:30:53.681Z,56.9
2023-03-27T10:31:54.871Z,56.6
2023-03-27T10:32:56.049Z,56.7
2023-03-27T10:33:57.074Z,55.7
2023-03-27T10:34:58.645Z,54.6
2023-03-27T10:35:59.902Z,54.1
2023-03-27T10:37:01.185Z,54.2
2023-03-27T10:38:02.346Z,53.7
2023-03-27T10:39:03.513Z,53.5
2023-03-27T10:40:04.687Z,53.8
2023-03-27T10:41:05.846Z,53.9
2023-03-27T10:42:07.011Z,54.2
2023-03-27T10:43:08.182Z,54.8
2023-03-27T10:44:09.340Z,55.3
2023-03-27T10:45:10.509Z,56.4
2023-03-27T10:46:12.068Z,58.2
2023-03-27T10:47:13.333Z,59.2
2023-03-27T10:48:17.598Z,59.4
2023-03-27T10:49:18.735Z,59.7
2023-03-27T10:50:19.910Z,60.1
2023-03-27T10:51:21.069Z,61.2
2023-03-27T10:52:22.235Z,62.3
2023-03-27T10:53:23.797Z,63.7
2023-03-27T10:54:25.422Z,64.7
2023-03-27T10:55:26.562Z,66
2023-03-27T10:56:27.736Z,66.3
2023-03-27T10:57:28.895Z,66.8
2023-03-27T10:58:30.055Z,67.4
2023-03-27T11:03:48.608Z,67.9
2023-03-27T11:04:50.016Z,70
2023-03-27T11:05:51.170Z,69.7
2023-03-27T11:06:52.342Z,69.6
2023-03-27T11:07:53.497Z,69.5
2023-03-27T11:08:54.666Z,69.2
2023-03-27T11:09:55.835Z,68.8
2023-03-27T11:10:57.812Z,68.8
2023-03-27T11:11:58.960Z,68.8
2023-03-27T11:13:00.124Z,68.4
2023-03-27T11:14:01.288Z,68.4
2023-03-27T11:15:02.258Z,68.5
2023-03-27T11:16:03.422Z,68.5
2023-03-27T11:17:05.003Z,68.2
2023-03-27T11:18:06.305Z,67.7
2023-03-27T11:19:07.471Z,67.4
2023-03-27T11:20:08.739Z,67.8
2023-03-27T11:21:09.907Z,68.2
2023-03-27T11:22:14.014Z,68
2023-03-27T11:23:15.188Z,68.2
2023-03-27T11:24:16.370Z,68.1
2023-03-27T11:25:17.410Z,68
2023-03-27T11:26:18.577Z,67.6
2023-03-27T11:27:19.749Z,67.8
2023-03-27T11:28:20.923Z,68
2023-03-27T11:29:22.129Z,68.2
2023-03-27T11:30:23.293Z,68.4
2023-03-27T11:31:24.662Z,68.3
2023-03-27T11:32:25.863Z,68.1
2023-03-27T11:33:26.872Z,67.8
2023-03-27T11:34:30.371Z,67.2
2023-03-27T11:35:31.614Z,67.5
2023-03-27T11:36:32.769Z,68.1
2023-03-27T11:37:33.935Z,69.1
2023-03-27T11:38:35.103Z,70.7
2023-03-27T11:39:36.257Z,71.1
2023-03-27T11:40:37.426Z,72
2023-03-27T11:41:38.594Z,72.9
2023-03-27T11:42:39.761Z,73.5
2023-03-27T11:43:40.929Z,74.3
2023-03-27T11:44:42.088Z,74.7
2023-03-27T11:45:43.256Z,75.5
2023-03-27T11:46:44.730Z,75.7
2023-03-27T11:47:46.094Z,76
2023-03-27T11:48:47.368Z,76.1
2023-03-27T11:49:48.543Z,76.6
2023-03-27T11:50:49.722Z,77.4
2023-03-27T11:51:51.199Z,78
2023-03-27T11:52:52.364Z,78.6
2023-03-27T11:53:53.511Z,79.4
2023-03-27T11:54:54.683Z,80.1
2023-03-27T11:55:55.842Z,80.6
2023-03-27T11:56:57.144Z,81.1
2023-03-27T11:57:58.292Z,81.2
2023-03-27T11:58:59.456Z,81.2
2023-03-27T12:00:00.620Z,81.5
2023-03-27T12:01:01.795Z,81.7
2023-03-27T12:02:03.273Z,82.1
2023-03-27T12:03:05.191Z,82.5
2023-03-27T12:04:06.864Z,82.9
2023-03-27T12:05:08.283Z,83.3
2023-03-27T12:06:09.425Z,83.6
2023-03-27T12:07:14.218Z,83.9
2023-03-27T12:08:16.680Z,84.3
2023-03-27T12:09:17.830Z,84.6
2023-03-27T12:10:19.219Z,84.7
2023-03-27T12:11:21.819Z,84.7
2023-03-27T12:12:23.006Z,85
2023-03-27T12:13:42.795Z,85.4
2023-03-27T12:14:46.860Z,85.5
2023-03-27T12:15:48.044Z,85.4
2023-03-27T12:16:49.219Z,85.5
2023-03-27T12:17:50.463Z,85.3
2023-03-27T12:19:28.273Z,85.5
2023-03-27T12:20:31.018Z,85.9
2023-03-27T12:21:32.162Z,85.9
2023-03-27T12:22:33.325Z,85.8
2023-03-27T12:23:34.637Z,85.5
2023-03-27T12:24:35.753Z,85.4
2023-03-27T12:25:37.260Z,85.4
2023-03-27T12:26:38.438Z,85.1
2023-03-27T12:27:39.592Z,84.9
2023-03-27T12:28:42.010Z,85
2023-03-27T12:29:43.159Z,84.8
2023-03-27T12:30:44.323Z,84.3
2023-03-27T12:31:45.693Z,83.7
2023-03-27T12:32:47.142Z,83.3
2023-03-27T12:33:48.391Z,82.7
2023-03-27T12:34:49.828Z,82.2
2023-03-27T12:35:51.168Z,82.2
2023-03-27T12:36:52.405Z,81.9
2023-03-27T12:37:53.568Z,82
2023-03-27T12:38:54.802Z,82.1
2023-03-27T12:39:55.986Z,82.2
2023-03-27T12:40:57.870Z,82.4
2023-03-27T12:41:59.098Z,82.6
2023-03-27T12:43:00.279Z,82
2023-03-27T12:44:01.595Z,82.1
2023-03-27T12:45:02.724Z,82.2
2023-03-27T12:46:04.655Z,82.4
2023-03-27T12:47:09.709Z,82.3
2023-03-27T12:48:11.006Z,82.2
2023-03-27T12:49:12.177Z,81.9
2023-03-27T12:50:13.348Z,81.7
2023-03-27T12:51:14.550Z,81.8
2023-03-27T12:52:15.947Z,82
2023-03-27T12:53:17.113Z,82.2
2023-03-27T12:54:18.287Z,82.5
2023-03-27T12:55:19.449Z,82.5
2023-03-27T12:56:20.612Z,82.5
2023-03-27T12:57:22.485Z,82.6
2023-03-27T12:58:24.283Z,82.6
2023-03-27T12:59:26.047Z,82.8
2023-03-27T13:00:27.193Z,83.1
2023-03-27T13:01:34.165Z,83.3
2023-03-27T13:02:38.058Z,83.7
2023-03-27T13:03:39.808Z,84
2023-03-27T13:04:41.029Z,84.3
2023-03-27T13:05:42.197Z,84.4
2023-03-27T13:06:43.559Z,84.7
2023-03-27T13:07:44.745Z,84.9
2023-03-27T13:08:45.908Z,85.1
2023-03-27T13:09:46.874Z,85.3
2023-03-27T13:10:48.041Z,85.4
2023-03-27T13:11:49.228Z,85.8
2023-03-27T13:12:50.398Z,86.2
2023-03-27T13:13:51.564Z,86.4
2023-03-27T13:14:52.732Z,86.7
2023-03-27T13:15:54.068Z,86.7
2023-03-27T13:16:55.249Z,87.1
2023-03-27T13:17:56.539Z,87.2
2023-03-27T13:18:57.691Z,87.3
2023-03-27T13:19:58.858Z,87.3
2023-03-27T13:21:00.059Z,87.3
2023-03-27T13:22:01.238Z,87.4
2023-03-27T13:23:02.368Z,87.4
2023-03-27T13:24:03.535Z,87.6
2023-03-27T13:25:04.729Z,87.6
2023-03-27T13:26:05.873Z,87.8
2023-03-27T13:27:07.036Z,88.1
2023-03-27T13:28:08.207Z,88.2
2023-03-27T13:29:09.368Z,88
2023-03-27T13:30:10.536Z,88.2
2023-03-27T13:31:11.897Z,88
2023-03-27T13:32:13.036Z,87.3
2023-03-27T13:33:14.254Z,87
2023-03-27T13:34:15.446Z,86.6
2023-03-27T13:35:16.400Z,86.4
2023-03-27T13:36:18.074Z,86.2
2023-03-27T13:37:19.405Z,86.1
2023-03-27T13:38:20.702Z,86.6
2023-03-27T13:39:21.920Z,86.4
2023-03-27T13:40:23.090Z,85.9
2023-03-27T13:41:24.248Z,85
2023-03-27T13:42:25.525Z,84.3
2023-03-27T13:43:26.691Z,84.1
2023-03-27T13:44:27.859Z,83.7
2023-03-27T13:45:29.020Z,83.3
2023-03-27T13:46:30.304Z,83.2
2023-03-27T13:47:31.493Z,83.2
2023-03-27T13:48:32.752Z,83.2
2023-03-27T13:49:33.921Z,82.9
2023-03-27T13:50:35.086Z,82.8
2023-03-27T13:51:36.247Z,82.8
2023-03-27T13:52:37.458Z,82.2
2023-03-27T13:53:38.413Z,81.3